createdAt,value
2023-03-18T00:01:28.240Z,15.08
2023-03-18T00:03:30.460Z,15.11
2023-03-18T00:05:32.187Z,15.11
2023-03-18T00:07:35.423Z,15.14
2023-03-18T00:09:37.425Z,15.16
2023-03-18T00:11:39.228Z,15.18
2023-03-18T00:13:41.458Z,15.16
2023-03-18T00:15:43.288Z,15.16
2023-03-18T00:17:45.692Z,15.13
2023-03-18T00:19:47.560Z,15.11
2023-03-18T00:21:49.143Z,15.12
2023-03-18T00:23:52.083Z,15.13
2023-03-18T00:25:55.523Z,15.16
2023-03-18T00:27:57.059Z,15.14
2023-03-18T00:29:58.687Z,15.16
2023-03-18T00:32:00.613Z,15.18
2023-03-18T00:34:02.277Z,15.18
2023-03-18T00:36:04.719Z,15.14
2023-03-18T00:38:06.728Z,15.05
2023-03-18T00:40:12.021Z,15.05
2023-03-18T00:42:13.597Z,15.11
2023-03-18T00:44:15.432Z,15.07
2023-03-18T00:46:19.270Z,15.02
2023-03-18T00:48:20.967Z,15.04
2023-03-18T00:50:22.509Z,15.08
2023-03-18T00:52:24.075Z,15.08
2023-03-18T00:54:25.680Z,15.09
2023-03-18T00:56:31.150Z,15.13
2023-03-18T00:58:32.731Z,15.16
2023-03-18T01:00:34.831Z,15.17
2023-03-18T01:02:36.573Z,15.20
2023-03-18T01:04:38.160Z,15.24
2023-03-18T01:06:39.716Z,15.32
2023-03-18T01:08:41.892Z,15.37
2023-03-18T01:10:43.371Z,15.39
2023-03-18T01:12:46.408Z,15.34
2023-03-18T01:14:48.194Z,15.34
2023-03-18T01:16:50.609Z,15.30
2023-03-18T01:18:52.824Z,15.27
2023-03-18T01:20:54.422Z,15.23
2023-03-18T01:22:57.926Z,15.25
2023-03-18T01:24:59.500Z,15.24
2023-03-18T01:27:01.077Z,15.23
2023-03-18T01:29:04.286Z,15.28
2023-03-18T01:31:05.847Z,15.25
2023-03-18T01:33:07.899Z,15.30
2023-03-18T01:35:10.514Z,15.31
2023-03-18T01:37:12.106Z,15.30
2023-03-18T01:39:14.610Z,15.36
2023-03-18T01:41:16.010Z,15.38
2023-03-18T01:43:20.205Z,15.48
2023-03-18T01:45:26.121Z,15.50
2023-03-18T01:47:27.725Z,15.48
2023-03-18T01:49:33.767Z,15.48
2023-03-18T01:51:36.753Z,15.48
2023-03-18T01:53:41.818Z,15.46
2023-03-18T01:55:44.958Z,15.43
2023-03-18T01:57:52.921Z,15.29
2023-03-18T01:59:56.637Z,15.24
2023-03-18T02:02:03.404Z,15.21
2023-03-18T02:04:07.347Z,15.17
2023-03-18T02:06:09.114Z,15.14
2023-03-18T02:08:10.737Z,15.14
2023-03-18T02:10:15.102Z,15.11
2023-03-18T02:12:22.478Z,15.08
2023-03-18T02:14:26.309Z,15.09
2023-03-18T02:16:32.175Z,15.09
2023-03-18T02:18:38.529Z,15.09
2023-03-18T02:20:55.034Z,15.12
2023-03-18T02:23:09.281Z,15.14
2023-03-18T02:25:21.718Z,15.12
2023-03-18T02:27:26.382Z,15.10
2023-03-18T02:29:30.783Z,15.10
2023-03-18T02:31:36.263Z,15.11
2023-03-18T02:33:40.297Z,15.14
2023-03-18T02:35:44.669Z,15.15
2023-03-18T02:37:46.390Z,15.13
2023-03-18T02:39:48.066Z,15.08
2023-03-18T02:41:49.730Z,15.08
2023-03-18T02:43:53.263Z,15.09
2023-03-18T02:46:06.177Z,15.05
2023-03-18T02:48:11.378Z,15.06
2023-03-18T02:50:13.017Z,14.98
2023-03-18T02:52:14.598Z,14.91
2023-03-18T02:54:20.785Z,14.99
2023-03-18T02:56:22.368Z,14.98
2023-03-18T02:58:23.921Z,15.00
2023-03-18T03:00:27.063Z,14.93
2023-03-18T03:02:28.713Z,14.94
2023-03-18T03:04:30.370Z,14.91
2023-03-18T03:06:32.060Z,14.96
2023-03-18T03:08:33.626Z,14.92
2023-03-18T03:10:35.279Z,14.98
2023-03-18T03:12:37.496Z,14.96
2023-03-18T03:14:39.061Z,14.98
2023-03-18T03:16:42.468Z,14.95
2023-03-18T03:18:44.348Z,14.94
2023-03-18T03:20:46.247Z,14.95
2023-03-18T03:22:51.504Z,14.95
2023-03-18T03:24:53.228Z,14.91
2023-03-18T03:26:54.782Z,14.91
2023-03-18T03:28:56.406Z,14.88
2023-03-18T03:30:58.426Z,14.88
2023-03-18T03:33:01.764Z,14.89
2023-03-18T03:35:03.729Z,14.88
2023-03-18T03:37:05.770Z,14.89
2023-03-18T03:39:07.394Z,14.87
2023-03-18T03:41:10.252Z,14.85
2023-03-18T03:43:12.861Z,14.87
2023-03-18T03:45:16.384Z,14.88
2023-03-18T03:47:17.950Z,14.83
2023-03-18T03:49:20.996Z,14.78
2023-03-18T03:51:22.670Z,14.78
2023-03-18T03:53:24.498Z,14.84
2023-03-18T03:55:26.320Z,14.85
2023-03-18T03:57:28.007Z,14.86
2023-03-18T03:59:29.744Z,14.81
2023-03-18T04:01:31.599Z,14.76
2023-03-18T04:03:33.189Z,14.81
2023-03-18T04:05:36.124Z,14.80
2023-03-18T04:07:37.833Z,14.84
2023-03-18T04:09:39.401Z,14.86
2023-03-18T04:11:40.977Z,14.82
2023-03-18T04:13:42.672Z,14.76
2023-03-18T04:15:44.283Z,14.73
2023-03-18T04:17:46.257Z,14.70
2023-03-18T04:19:48.108Z,14.68
2023-03-18T04:21:51.160Z,14.69
2023-03-18T04:23:52.687Z,14.61
2023-03-18T04:25:54.319Z,14.61
2023-03-18T04:27:56.010Z,14.60
2023-03-18T04:29:57.639Z,14.62
2023-03-18T04:31:59.294Z,14.67
2023-03-18T04:34:00.911Z,14.69
2023-03-18T04:36:02.546Z,14.62
2023-03-18T04:38:05.535Z,14.55
2023-03-18T04:40:07.976Z,14.53
2023-03-18T04:42:09.810Z,14.48
2023-03-18T04:44:11.553Z,14.48
2023-03-18T04:46:13.184Z,14.53
2023-03-18T04:48:14.816Z,14.52
2023-03-18T04:50:16.984Z,14.48
2023-03-18T04:52:18.745Z,14.53
2023-03-18T04:54:21.919Z,14.54
2023-03-18T04:56:23.692Z,14.52
2023-03-18T04:58:25.260Z,14.55
2023-03-18T05:00:27.024Z,14.58
2023-03-18T05:02:28.602Z,14.60
2023-03-18T05:04:30.520Z,14.55
2023-03-18T05:06:32.547Z,14.54
2023-03-18T05:08:34.122Z,14.49
2023-03-18T05:10:37.217Z,14.46
2023-03-18T05:12:39.014Z,14.47
2023-03-18T05:14:41.091Z,14.48
2023-03-18T05:16:42.760Z,14.47
2023-03-18T05:18:44.569Z,14.45
2023-03-18T05:20:46.154Z,14.45
2023-03-18T05:22:47.708Z,14.43
2023-03-18T05:24:49.736Z,14.40
2023-03-18T05:26:52.675Z,14.42
2023-03-18T05:28:54.536Z,14.38
2023-03-18T05:30:56.064Z,14.40
2023-03-18T05:32:57.648Z,14.34
2023-03-18T05:34:59.186Z,14.35
2023-03-18T05:37:00.687Z,14.35
2023-03-18T05:39:02.334Z,14.37
2023-03-18T05:41:04.261Z,14.42
2023-03-18T05:43:07.381Z,14.43
2023-03-18T05:45:09.577Z,14.45
2023-03-18T05:47:11.586Z,14.47
2023-03-18T05:49:13.101Z,14.52
2023-03-18T05:51:14.738Z,14.48
2023-03-18T05:53:18.162Z,14.48
2023-03-18T05:55:19.944Z,14.45
2023-03-18T05:57:21.579Z,14.46
2023-03-18T05:59:24.576Z,14.42
2023-03-18T06:01:26.226Z,14.42
2023-03-18T06:03:27.963Z,14.48
2023-03-18T06:05:30.007Z,14.48
2023-03-18T06:07:31.838Z,14.52
2023-03-18T06:09:33.567Z,14.49
2023-03-18T06:11:35.616Z,14.49
2023-03-18T06:13:37.184Z,14.54
2023-03-18T06:15:40.401Z,14.56
2023-03-18T06:17:42.313Z,14.58
2023-03-18T06:19:43.838Z,14.60
2023-03-18T06:21:45.407Z,14.60
2023-03-18T06:23:46.940Z,14.63
2023-03-18T06:25:48.547Z,14.68
2023-03-18T06:27:50.332Z,14.72
2023-03-18T06:29:51.972Z,14.77
2023-03-18T06:31:55.019Z,14.82
2023-03-18T06:33:56.721Z,14.94
2023-03-18T06:35:58.520Z,15.00
2023-03-18T06:38:00.251Z,15.01
2023-03-18T06:40:01.941Z,15.06
2023-03-18T06:42:05.764Z,15.07
2023-03-18T06:44:07.346Z,15.10
2023-03-18T06:46:08.974Z,15.14
2023-03-18T06:48:11.949Z,15.15
2023-03-18T06:50:13.584Z,15.14
2023-03-18T06:52:15.448Z,15.12
2023-03-18T06:54:16.977Z,15.18
2023-03-18T06:56:18.541Z,15.21
2023-03-18T06:58:20.168Z,15.27
2023-03-18T07:00:22.296Z,15.27
2023-03-18T07:02:24.273Z,15.32
2023-03-18T07:04:27.552Z,15.37
2023-03-18T07:06:29.657Z,15.38
2023-03-18T07:08:31.204Z,15.40
2023-03-18T07:10:32.833Z,15.45
2023-03-18T07:12:34.420Z,15.53
2023-03-18T07:14:36.068Z,15.63
2023-03-18T07:16:37.693Z,15.71
2023-03-18T07:18:39.277Z,15.81
2023-03-18T07:20:42.215Z,15.93
2023-03-18T07:22:45.034Z,16.04
2023-03-18T07:24:46.775Z,16.16
2023-03-18T07:26:48.869Z,16.25
2023-03-18T07:28:50.508Z,16.34
2023-03-18T07:30:54.150Z,16.42
2023-03-18T07:32:55.979Z,16.43
2023-03-18T07:34:57.675Z,16.46
2023-03-18T07:37:00.616Z,16.59
2023-03-18T07:39:02.210Z,16.62
2023-03-18T07:41:03.961Z,16.69
2023-03-18T07:43:05.991Z,16.68
2023-03-18T07:45:09.360Z,16.72
2023-03-18T07:47:11.142Z,16.83
2023-03-18T07:49:12.715Z,16.89
2023-03-18T07:51:14.348Z,16.96
2023-03-18T07:53:17.498Z,17.02
2023-03-18T07:55:19.022Z,17.13
2023-03-18T07:57:20.809Z,17.27
2023-03-18T07:59:22.502Z,17.32
2023-03-18T08:01:24.147Z,17.43
2023-03-18T08:03:25.954Z,17.57
2023-03-18T08:05:27.587Z,17.62
2023-03-18T08:07:29.214Z,17.73
2023-03-18T08:09:32.225Z,17.76
2023-03-18T08:11:33.882Z,17.79
2023-03-18T08:13:37.724Z,17.88
2023-03-18T08:15:39.663Z,18.03
2023-03-18T08:17:43.328Z,18.05
2023-03-18T08:19:50.830Z,18.02
2023-03-18T08:21:52.451Z,17.98
2023-03-18T08:23:54.147Z,18.02
2023-03-18T08:25:57.099Z,17.99
2023-03-18T08:27:58.690Z,17.91
2023-03-18T08:30:02.966Z,17.90
2023-03-18T08:32:05.909Z,17.87
2023-03-18T08:34:07.498Z,17.94
2023-03-18T08:36:09.340Z,18.04
2023-03-18T08:38:11.011Z,18.27
2023-03-18T08:40:13.287Z,18.44
2023-03-18T08:42:16.208Z,18.52
2023-03-18T08:44:30.107Z,18.71
2023-03-18T08:46:31.862Z,18.89
2023-03-18T08:48:33.439Z,18.92
2023-03-18T08:50:35.935Z,19.02
2023-03-18T08:52:37.499Z,19.14
2023-03-18T08:54:39.179Z,19.26
2023-03-18T08:56:40.747Z,19.27
2023-03-18T08:58:46.507Z,19.16
2023-03-18T09:00:51.024Z,19.01
2023-03-18T09:02:52.801Z,18.96
2023-03-18T09:04:54.708Z,18.83
2023-03-18T09:06:56.426Z,18.79
2023-03-18T09:08:58.339Z,18.77
2023-03-18T09:11:00.040Z,18.78
2023-03-18T09:13:01.629Z,18.88
2023-03-18T09:15:05.680Z,19.00
2023-03-18T09:17:07.250Z,19.14
2023-03-18T09:19:08.808Z,19.30
2023-03-18T09:21:10.363Z,19.41
2023-03-18T09:23:13.935Z,19.63
2023-03-18T09:25:15.545Z,19.92
2023-03-18T09:27:17.139Z,20.18
2023-03-18T09:29:18.702Z,20.44
2023-03-18T09:31:21.887Z,20.56
2023-03-18T09:33:23.866Z,20.63
2023-03-18T09:35:25.656Z,20.69
2023-03-18T09:37:27.264Z,20.83
2023-03-18T09:39:28.809Z,20.90
2023-03-18T09:41:46.330Z,21.00
2023-03-18T09:44:01.137Z,21.25
2023-03-18T09:46:09.940Z,21.31
2023-03-18T09:48:40.603Z,21.50
2023-03-18T09:50:51.514Z,21.66
2023-03-18T09:53:05.340Z,21.85
2023-03-18T09:55:18.656Z,21.92
2023-03-18T09:57:28.675Z,21.74
2023-03-18T09:59:37.715Z,21.57
2023-03-18T10:01:41.168Z,21.50
2023-03-18T10:03:48.634Z,21.40
2023-03-18T10:06:00.630Z,21.57
2023-03-18T10:08:08.818Z,21.56
2023-03-18T10:10:19.698Z,21.32
2023-03-18T10:12:29.562Z,21.32
2023-03-18T10:14:37.277Z,21.35
2023-03-18T10:16:48.887Z,21.52
2023-03-18T10:18:51.922Z,21.70
2023-03-18T10:21:05.037Z,21.94
2023-03-18T10:23:21.103Z,22.10
2023-03-18T10:25:28.396Z,22.16
2023-03-18T10:27:42.239Z,22.24
2023-03-18T10:29:49.485Z,22.04
2023-03-18T10:32:05.685Z,22.04
2023-03-18T10:34:11.595Z,22.06
2023-03-18T10:36:19.224Z,22.08
2023-03-18T10:38:24.796Z,22.13
2023-03-18T10:40:29.258Z,22.10
2023-03-18T10:42:32.898Z,22.29
2023-03-18T10:44:38.436Z,22.31
2023-03-18T10:46:41.862Z,22.53
2023-03-18T10:48:46.727Z,22.70
2023-03-18T10:50:56.510Z,22.87
2023-03-18T10:53:04.867Z,23.35
2023-03-18T10:55:15.785Z,23.73
2023-03-18T10:57:18.477Z,24.05
2023-03-18T10:59:23.151Z,24.36
2023-03-18T11:01:27.884Z,24.57
2023-03-18T11:03:34.044Z,24.60
2023-03-18T11:05:37.232Z,24.65
2023-03-18T11:07:58.503Z,24.96
2023-03-18T11:10:13.596Z,25.27
2023-03-18T11:12:18.962Z,25.93
2023-03-18T11:14:22.375Z,26.38
2023-03-18T11:16:28.916Z,26.77
2023-03-18T11:18:30.767Z,26.88
2023-03-18T11:20:35.434Z,27.30
2023-03-18T11:22:37.930Z,27.74
2023-03-18T11:24:40.951Z,27.78
2023-03-18T11:26:53.944Z,27.89
2023-03-18T11:28:57.243Z,28.27
2023-03-18T11:31:05.850Z,28.50
2023-03-18T11:33:15.327Z,28.83
2023-03-18T11:35:20.339Z,28.57
2023-03-18T11:37:23.800Z,28.37
2023-03-18T11:39:29.418Z,28.16
2023-03-18T11:41:32.329Z,28.31
2023-03-18T11:43:34.515Z,28.85
2023-03-18T11:45:47.461Z,29.09
2023-03-18T11:47:49.133Z,28.63
2023-03-18T11:49:50.790Z,28.18
2023-03-18T11:51:58.301Z,28.43
2023-03-18T11:54:12.062Z,28.71
2023-03-18T11:56:20.670Z,28.89
2023-03-18T11:58:49.967Z,29.22
2023-03-18T12:00:58.386Z,29.54
2023-03-18T12:03:47.495Z,29.89
2023-03-18T12:06:08.320Z,29.70
2023-03-18T12:08:17.091Z,29.78
2023-03-18T12:10:24.773Z,29.95
2023-03-18T12:12:44.274Z,30.23
2023-03-18T12:14:53.498Z,30.06
2023-03-18T12:17:05.289Z,30.34
2023-03-18T12:19:36.686Z,29.98
2023-03-18T12:21:52.992Z,30.16
2023-03-18T12:24:11.509Z,30.25
2023-03-18T12:26:19.537Z,30.45
2023-03-18T12:28:31.949Z,30.21
2023-03-18T12:31:00.642Z,29.83
2023-03-18T12:33:09.141Z,29.62
2023-03-18T12:35:28.577Z,29.33
2023-03-18T12:37:41.599Z,28.69
2023-03-18T12:39:58.719Z,28.28
2023-03-18T12:42:03.230Z,27.89
2023-03-18T12:44:23.769Z,27.50
2023-03-18T12:46:31.955Z,27.24
2023-03-18T12:48:44.005Z,26.87
2023-03-18T12:51:00.586Z,26.61
2023-03-18T12:53:05.087Z,26.36
2023-03-18T12:55:15.291Z,26.16
2023-03-18T12:57:26.316Z,25.92
2023-03-18T12:59:34.127Z,25.82
2023-03-18T13:01:43.707Z,25.90
2023-03-18T13:03:51.429Z,25.86
2023-03-18T13:05:55.973Z,25.74
2023-03-18T13:08:22.233Z,25.70
2023-03-18T13:10:24.884Z,25.47
2023-03-18T13:12:30.720Z,25.41
2023-03-18T13:14:43.281Z,25.25
2023-03-18T13:16:47.549Z,25.13
2023-03-18T13:18:52.325Z,25.02
2023-03-18T13:20:57.561Z,24.95
2023-03-18T13:23:14.342Z,25.14
2023-03-18T13:25:27.580Z,25.12
2023-03-18T13:27:49.332Z,25.23
2023-03-18T13:29:57.536Z,25.27
2023-03-18T13:32:12.759Z,25.13
2023-03-18T13:34:37.077Z,24.78
2023-03-18T13:37:07.921Z,24.69
2023-03-18T13:39:22.384Z,24.71
2023-03-18T13:42:05.451Z,24.71
2023-03-18T13:44:14.371Z,24.52
2023-03-18T13:46:23.469Z,24.60
2023-03-18T13:48:30.790Z,24.58
2023-03-18T13:50:35.479Z,24.40
2023-03-18T13:52:42.031Z,24.38
2023-03-18T13:54:43.646Z,24.39
2023-03-18T13:56:49.552Z,24.33
2023-03-18T13:58:51.343Z,24.36
2023-03-18T14:01:27.079Z,24.31
2023-03-18T14:03:31.234Z,24.14
2023-03-18T14:05:38.547Z,23.97
2023-03-18T14:07:47.280Z,23.99
2023-03-18T14:09:54.872Z,23.92
2023-03-18T14:12:04.766Z,24.00
2023-03-18T14:14:27.923Z,24.01
2023-03-18T14:16:51.622Z,23.97
2023-03-18T14:18:57.395Z,23.91
2023-03-18T14:21:03.773Z,23.83
2023-03-18T14:23:28.160Z,23.68
2023-03-18T14:25:43.057Z,23.59
2023-03-18T14:27:47.261Z,23.52
2023-03-18T14:29:48.949Z,23.52
2023-03-18T14:31:56.934Z,23.50
2023-03-18T14:34:32.217Z,23.54
2023-03-18T14:36:48.975Z,23.57
2023-03-18T14:38:58.975Z,23.58
2023-03-18T14:41:04.042Z,23.60
2023-03-18T14:43:10.944Z,23.73
2023-03-18T14:45:18.646Z,23.89
2023-03-18T14:47:38.336Z,23.82
2023-03-18T14:49:44.649Z,23.78
2023-03-18T14:51:47.413Z,23.86
2023-03-18T14:53:53.284Z,23.88
2023-03-18T14:55:57.030Z,23.75
2023-03-18T14:57:58.966Z,23.70
2023-03-18T15:00:01.716Z,23.66
2023-03-18T15:02:09.485Z,23.66
2023-03-18T15:04:18.652Z,23.69
2023-03-18T15:06:22.058Z,23.62
2023-03-18T15:08:37.454Z,23.40
2023-03-18T15:10:42.990Z,23.29
2023-03-18T15:12:44.562Z,23.18
2023-03-18T15:14:46.205Z,23.20
2023-03-18T15:16:52.248Z,23.32
2023-03-18T15:18:55.603Z,23.20
2023-03-18T15:21:03.035Z,23.14
2023-03-18T15:23:07.808Z,23.07
2023-03-18T15:25:17.537Z,22.99
2023-03-18T15:27:19.733Z,22.87
2023-03-18T15:29:28.192Z,22.78
2023-03-18T15:31:31.865Z,22.71
2023-03-18T15:33:36.214Z,22.72
2023-03-18T15:35:37.862Z,22.69
2023-03-18T15:37:41.749Z,22.74
2023-03-18T15:39:43.386Z,22.71
2023-03-18T15:41:45.177Z,22.75
2023-03-18T15:43:48.880Z,22.70
2023-03-18T15:45:55.542Z,22.68
2023-03-18T15:47:57.815Z,22.60
2023-03-18T15:50:01.720Z,22.62
2023-03-18T15:52:07.898Z,22.63
2023-03-18T15:54:16.601Z,22.67
2023-03-18T15:56:23.737Z,22.67
2023-03-18T15:58:27.456Z,22.67
2023-03-18T16:00:31.409Z,22.66
2023-03-18T16:02:33.776Z,22.62
2023-03-18T16:04:35.435Z,22.56
2023-03-18T16:06:37.082Z,22.53
2023-03-18T16:08:38.678Z,22.49
2023-03-18T16:10:41.744Z,22.46
2023-03-18T16:12:43.408Z,22.49
2023-03-18T16:14:47.310Z,22.50
2023-03-18T16:16:49.346Z,22.46
2023-03-18T16:18:51.002Z,22.50
2023-03-18T16:20:52.853Z,22.50
2023-03-18T16:22:55.553Z,22.49
2023-03-18T16:24:57.338Z,22.47
2023-03-18T16:27:00.637Z,22.42
2023-03-18T16:29:02.227Z,22.35
2023-03-18T16:31:04.074Z,22.35
2023-03-18T16:33:12.056Z,22.33
2023-03-18T16:35:14.463Z,22.28
2023-03-18T16:37:21.171Z,22.20
2023-03-18T16:39:25.099Z,22.15
2023-03-18T16:41:26.680Z,22.12
2023-03-18T16:43:32.151Z,22.15
2023-03-18T16:45:34.112Z,22.10
2023-03-18T16:47:35.902Z,22.08
2023-03-18T16:49:37.622Z,22.08
2023-03-18T16:51:39.166Z,22.01
2023-03-18T16:53:40.747Z,21.98
2023-03-18T16:55:42.617Z,21.97
2023-03-18T16:57:48.645Z,21.98
2023-03-18T16:59:54.257Z,21.94
2023-03-18T17:01:56.304Z,21.93
2023-03-18T17:03:57.906Z,21.92
2023-03-18T17:05:59.733Z,21.92
2023-03-18T17:08:01.348Z,21.89
2023-03-18T17:10:03.343Z,21.85
2023-03-18T17:12:06.801Z,21.83
2023-03-18T17:14:25.903Z,21.80
2023-03-18T17:16:29.410Z,21.77
2023-03-18T17:18:31.059Z,21.74
2023-03-18T17:20:33.184Z,21.67
2023-03-18T17:22:34.759Z,21.60
2023-03-18T17:24:36.272Z,21.55
2023-03-18T17:26:37.891Z,21.46
2023-03-18T17:28:42.260Z,21.42
2023-03-18T17:30:44.158Z,21.35
2023-03-18T17:32:48.089Z,21.35
2023-03-18T17:34:51.382Z,21.30
2023-03-18T17:36:53.109Z,21.29
2023-03-18T17:38:54.671Z,21.22
2023-03-18T17:40:56.548Z,21.15
2023-03-18T17:42:58.120Z,21.18
2023-03-18T17:45:05.214Z,21.24
2023-03-18T17:47:08.861Z,21.22
2023-03-18T17:49:11.820Z,21.17
2023-03-18T17:51:15.770Z,21.14
2023-03-18T17:53:24.463Z,21.10
2023-03-18T17:55:25.985Z,21.13
2023-03-18T17:57:27.613Z,21.10
2023-03-18T17:59:29.234Z,20.97
2023-03-18T18:01:31.044Z,20.92
2023-03-18T18:03:34.285Z,20.87
2023-03-18T18:05:37.134Z,20.82
2023-03-18T18:07:45.068Z,20.71
2023-03-18T18:09:46.847Z,20.67
2023-03-18T18:11:49.156Z,20.60
2023-03-18T18:13:53.197Z,20.54
2023-03-18T18:15:54.786Z,20.41
2023-03-18T18:17:56.720Z,20.42
2023-03-18T18:19:58.313Z,20.35
2023-03-18T18:22:01.300Z,20.38
2023-03-18T18:24:03.187Z,20.33
2023-03-18T18:26:06.728Z,20.34
2023-03-18T18:28:17.241Z,20.30
2023-03-18T18:30:21.617Z,20.21
2023-03-18T18:32:23.171Z,20.16
2023-03-18T18:34:25.066Z,20.16
2023-03-18T18:36:26.647Z,20.22
2023-03-18T18:38:30.038Z,20.15
2023-03-18T18:40:31.674Z,20.12
2023-03-18T18:42:33.265Z,20.17
2023-03-18T18:44:34.868Z,20.18
2023-03-18T18:46:36.569Z,20.06
2023-03-18T18:48:38.953Z,20.11
2023-03-18T18:50:40.984Z,20.09
2023-03-18T18:52:42.604Z,20.04
2023-03-18T18:54:45.634Z,20.03
2023-03-18T18:56:50.958Z,20.01
2023-03-18T18:58:52.953Z,19.89
2023-03-18T19:00:55.257Z,19.86
2023-03-18T19:02:56.818Z,19.78
2023-03-18T19:04:58.791Z,19.78
2023-03-18T19:07:05.062Z,19.74
2023-03-18T19:09:16.045Z,19.74
2023-03-18T19:11:19.054Z,19.71
2023-03-18T19:13:21.017Z,19.58
2023-03-18T19:15:22.657Z,19.58
2023-03-18T19:17:24.539Z,19.57
2023-03-18T19:19:28.454Z,19.56
2023-03-18T19:21:30.066Z,19.55
2023-03-18T19:23:34.434Z,19.48
2023-03-18T19:25:36.295Z,19.40
2023-03-18T19:27:39.300Z,19.41
2023-03-18T19:29:41.131Z,19.39
2023-03-18T19:31:42.745Z,19.32
2023-03-18T19:33:47.195Z,19.30
2023-03-18T19:35:48.869Z,19.25
2023-03-18T19:37:50.460Z,19.15
2023-03-18T19:39:52.083Z,19.08
2023-03-18T19:41:53.747Z,19.07
2023-03-18T19:44:00.730Z,19.05
2023-03-18T19:46:02.452Z,18.99
2023-03-18T19:48:04.486Z,18.92
2023-03-18T19:50:14.293Z,18.96
2023-03-18T19:52:18.485Z,18.96
2023-03-18T19:54:27.458Z,18.97
2023-03-18T19:56:29.552Z,19.02
2023-03-18T19:58:31.730Z,19.00
2023-03-18T20:00:34.744Z,19.01
2023-03-18T20:02:36.359Z,18.86
2023-03-18T20:04:38.057Z,18.79
2023-03-18T20:06:39.789Z,18.74
2023-03-18T20:08:41.382Z,18.74
2023-03-18T20:10:43.520Z,18.83
2023-03-18T20:12:47.349Z,18.77
2023-03-18T20:14:49.458Z,18.74
2023-03-18T20:16:52.706Z,18.80
2023-03-18T20:18:54.384Z,18.79
2023-03-18T20:20:56.003Z,18.81
2023-03-18T20:22:59.819Z,18.80
2023-03-18T20:25:02.746Z,18.76
2023-03-18T20:27:11.450Z,18.78
2023-03-18T20:29:17.581Z,18.74
2023-03-18T20:31:19.226Z,18.73
2023-03-18T20:33:23.163Z,18.68
2023-03-18T20:35:27.415Z,18.68
2023-03-18T20:37:35.594Z,18.63
2023-03-18T20:39:37.241Z,18.56
2023-03-18T20:41:38.972Z,18.53
2023-03-18T20:43:40.614Z,18.52
2023-03-18T20:45:42.495Z,18.56
2023-03-18T20:47:44.806Z,18.62
2023-03-18T20:49:47.776Z,18.59
2023-03-18T20:51:52.532Z,18.57
2023-03-18T20:53:54.149Z,18.64
2023-03-18T20:55:55.995Z,18.36
2023-03-18T20:57:58.396Z,18.41
2023-03-18T21:00:00.031Z,18.27
2023-03-18T21:02:01.646Z,18.30
2023-03-18T21:04:03.611Z,18.28
2023-03-18T21:06:06.931Z,18.38
2023-03-18T21:08:10.039Z,18.39
2023-03-18T21:10:16.415Z,18.15
2023-03-18T21:12:19.836Z,18.16
2023-03-18T21:14:21.538Z,18.22
2023-03-18T21:16:23.236Z,18.18
2023-03-18T21:18:25.505Z,18.07
2023-03-18T21:20:29.039Z,18.06
2023-03-18T21:22:32.035Z,17.96
2023-03-18T21:24:33.562Z,17.89
2023-03-18T21:26:35.215Z,17.92
2023-03-18T21:28:36.781Z,17.85
2023-03-18T21:30:38.415Z,17.89
2023-03-18T21:32:40.137Z,17.80
2023-03-18T21:34:41.728Z,17.81
2023-03-18T21:36:43.262Z,17.77
2023-03-18T21:38:46.399Z,17.81
2023-03-18T21:40:47.947Z,17.84
2023-03-18T21:42:50.316Z,17.87
2023-03-18T21:44:52.556Z,17.73
2023-03-18T21:46:54.121Z,17.64
2023-03-18T21:48:55.707Z,17.65
2023-03-18T21:50:58.165Z,17.70
2023-03-18T21:52:59.803Z,17.74
2023-03-18T21:55:05.013Z,17.83
2023-03-18T21:57:14.141Z,17.69
2023-03-18T21:59:15.730Z,17.57
2023-03-18T22:01:20.917Z,17.60
2023-03-18T22:03:24.016Z,17.66
2023-03-18T22:05:25.539Z,17.50
2023-03-18T22:07:29.193Z,17.37
2023-03-18T22:09:30.770Z,17.33
2023-03-18T22:11:33.661Z,17.45
2023-03-18T22:13:35.355Z,17.42
2023-03-18T22:15:39.210Z,17.41
2023-03-18T22:17:40.892Z,17.43
2023-03-18T22:19:42.434Z,17.40
2023-03-18T22:21:44.084Z,17.24
2023-03-18T22:23:45.677Z,17.14
2023-03-18T22:25:49.237Z,17.26
2023-03-18T22:27:52.244Z,17.18
2023-03-18T22:29:57.218Z,17.08
2023-03-18T22:31:58.853Z,17.08
2023-03-18T22:34:00.564Z,17.03
2023-03-18T22:36:02.265Z,17.09
2023-03-18T22:38:03.822Z,16.88
2023-03-18T22:40:06.758Z,16.95
2023-03-18T22:42:14.023Z,17.06
2023-03-18T22:44:22.551Z,17.15
2023-03-18T22:46:24.189Z,16.87
2023-03-18T22:48:28.608Z,16.84
2023-03-18T22:50:32.547Z,16.88
2023-03-18T22:52:34.228Z,16.89
2023-03-18T22:54:36.419Z,16.86
2023-03-18T22:56:38.042Z,16.87
2023-03-18T22:58:39.919Z,16.77
2023-03-18T23:00:44.149Z,16.75
2023-03-18T23:02:45.826Z,16.59
2023-03-18T23:04:49.437Z,16.53
2023-03-18T23:06:51.055Z,16.57
2023-03-18T23:08:52.749Z,16.55
2023-03-18T23:10:56.096Z,16.55
2023-03-18T23:12:57.772Z,16.41
2023-03-18T23:14:59.376Z,16.51
2023-03-18T23:17:02.364Z,16.42
2023-03-18T23:19:03.915Z,16.40
2023-03-18T23:21:05.913Z,16.40
2023-03-18T23:23:07.849Z,16.38
2023-03-18T23:25:13.981Z,16.44
2023-03-18T23:27:15.535Z,16.42
2023-03-18T23:29:17.240Z,16.45
2023-03-18T23:31:18.851Z,16.41
2023-03-18T23:33:21.816Z,16.40
2023-03-18T23:35:23.860Z,16.43
2023-03-18T23:37:25.408Z,16.41
2023-03-18T23:39:27.033Z,16.35
2023-03-18T23:41:28.654Z,16.40
2023-03-18T23:43:30.205Z,16.36
2023-03-18T23:45:32.242Z,16.41
2023-03-18T23:47:34.214Z,16.41
2023-03-18T23:49:37.628Z,16.41
2023-03-18T23:51:39.302Z,16.39
2023-03-18T23:53:40.894Z,16.38
2023-03-18T23:55:42.438Z,16.41
2023-03-18T23:57:44.091Z,16.50
2023-03-18T23:59:45.706Z,16.50
